DLH3509 EDDL-LFPG
Flight info
| Callsign | DLH3509 |
|---|---|
| Flight time | 0h 50m |
| Altitude | 24000 |
| Route | MODRU2H MODRU Z717 MAS UM617 SISGA/N0417F230 UZ319 DELOM DCT MOPIL |
| Aircraft | A320/M-SDE3FGHIRWY/LB1 |
Departure
| Time | 2026-05-04 19:00 |
|---|---|
| Airport | Düsseldorf Airport (EDDL) |
Arrival
| Time | 2026-05-04 19:50 |
|---|---|
| Airport | Charles de Gaulle International Airport (LFPG) |
| Time | Latitude | Longitude | Altitude | Speed | Heading |
|---|---|---|---|---|---|
| 2026-05-04 18:08 | 51.28255 | 6.76729 | 137 ft | 0 kts | 225° |
| 2026-05-04 18:43 | 51.28265 | 6.76747 | 137 ft | 4 kts | 228° |
| 2026-05-04 18:43 | 51.28282 | 6.76780 | 137 ft | 4 kts | 232° |
| 2026-05-04 18:44 | 51.28298 | 6.76815 | 137 ft | 4 kts | 235° |
| 2026-05-04 18:44 | 51.28309 | 6.76838 | 137 ft | 4 kts | 232° |
| 2026-05-04 18:44 | 51.28329 | 6.76873 | 137 ft | 4 kts | 231° |
| 2026-05-04 18:44 | 51.28344 | 6.76909 | 137 ft | 4 kts | 243° |
| 2026-05-04 18:45 | 51.28354 | 6.76946 | 137 ft | 4 kts | 247° |
| 2026-05-04 18:45 | 51.28364 | 6.76978 | 137 ft | 1 kts | 232° |
| 2026-05-04 18:47 | 51.28358 | 6.76965 | 137 ft | 6 kts | 233° |
| 2026-05-04 18:47 | 51.28363 | 6.76887 | 137 ft | 11 kts | 310° |
| 2026-05-04 18:48 | 51.28434 | 6.76794 | 137 ft | 13 kts | 325° |
| 2026-05-04 18:48 | 51.28502 | 6.76807 | 137 ft | 10 kts | 50° |
| 2026-05-04 18:48 | 51.28565 | 6.76934 | 137 ft | 17 kts | 52° |
| 2026-05-04 18:48 | 51.28641 | 6.77095 | 137 ft | 21 kts | 53° |
| 2026-05-04 18:49 | 51.28731 | 6.77285 | 137 ft | 22 kts | 52° |
| 2026-05-04 18:49 | 51.28814 | 6.77456 | 136 ft | 10 kts | 52° |
| 2026-05-04 18:49 | 51.28866 | 6.77564 | 136 ft | 19 kts | 53° |
| 2026-05-04 18:49 | 51.28948 | 6.77737 | 137 ft | 20 kts | 53° |
| 2026-05-04 18:50 | 51.29031 | 6.77913 | 137 ft | 20 kts | 53° |
| 2026-05-04 18:50 | 51.29103 | 6.78064 | 137 ft | 14 kts | 52° |
| 2026-05-04 18:50 | 51.29130 | 6.78120 | 137 ft | 3 kts | 52° |
| 2026-05-04 18:50 | 51.29132 | 6.78124 | 137 ft | 0 kts | 52° |
| 2026-05-04 18:51 | 51.29135 | 6.78130 | 137 ft | 2 kts | 52° |
| 2026-05-04 18:51 | 51.29151 | 6.78164 | 137 ft | 3 kts | 52° |
| 2026-05-04 18:51 | 51.29174 | 6.78213 | 137 ft | 8 kts | 53° |
| 2026-05-04 18:51 | 51.29232 | 6.78293 | 137 ft | 14 kts | 36° |
| 2026-05-04 18:52 | 51.29315 | 6.78392 | 138 ft | 13 kts | 37° |
| 2026-05-04 18:52 | 51.29374 | 6.78456 | 139 ft | 6 kts | 26° |
| 2026-05-04 18:52 | 51.29389 | 6.78464 | 139 ft | 0 kts | 13° |
| 2026-05-04 18:57 | 51.29390 | 6.78464 | 139 ft | 2 kts | 13° |
| 2026-05-04 18:57 | 51.29450 | 6.78461 | 141 ft | 8 kts | 343° |
| 2026-05-04 18:58 | 51.29477 | 6.78378 | 142 ft | 15 kts | 256° |
| 2026-05-04 18:58 | 51.29462 | 6.78343 | 142 ft | 0 kts | 233° |
| 2026-05-04 18:59 | 51.29444 | 6.78303 | 142 ft | 24 kts | 231° |
| 2026-05-04 18:59 | 51.29173 | 6.77745 | 137 ft | 98 kts | 232° |
| 2026-05-04 18:59 | 51.28631 | 6.76632 | 138 ft | 152 kts | 232° |
| 2026-05-04 18:59 | 51.27966 | 6.75192 | 591 ft | 162 kts | 232° |
| 2026-05-04 19:00 | 51.27300 | 6.73742 | 1323 ft | 161 kts | 230° |
| 2026-05-04 19:00 | 51.26846 | 6.72770 | 1645 ft | 171 kts | 231° |
| 2026-05-04 19:00 | 51.25819 | 6.70581 | 2078 ft | 201 kts | 231° |
| 2026-05-04 19:00 | 51.25244 | 6.69355 | 2544 ft | 206 kts | 231° |
| 2026-05-04 19:01 | 51.24399 | 6.67538 | 3345 ft | 209 kts | 232° |
| 2026-05-04 19:01 | 51.23593 | 6.65590 | 4046 ft | 217 kts | 248° |
| 2026-05-04 19:01 | 51.23761 | 6.62359 | 4869 ft | 240 kts | 300° |
| 2026-05-04 19:01 | 51.24457 | 6.60927 | 5115 ft | 258 kts | 313° |
| 2026-05-04 19:02 | 51.25915 | 6.58940 | 5763 ft | 273 kts | 322° |
| 2026-05-04 19:02 | 51.27437 | 6.57206 | 6590 ft | 278 kts | 324° |
| 2026-05-04 19:02 | 51.29036 | 6.55429 | 7442 ft | 281 kts | 324° |
| 2026-05-04 19:02 | 51.30640 | 6.53592 | 8290 ft | 285 kts | 323° |
| 2026-05-04 19:03 | 51.32249 | 6.51672 | 9147 ft | 289 kts | 322° |
| 2026-05-04 19:03 | 51.33852 | 6.49685 | 9979 ft | 293 kts | 321° |
| 2026-05-04 19:03 | 51.35446 | 6.47663 | 10721 ft | 297 kts | 321° |
| 2026-05-04 19:03 | 51.37071 | 6.45580 | 11492 ft | 301 kts | 321° |
| 2026-05-04 19:04 | 51.38557 | 6.43213 | 12222 ft | 304 kts | 303° |
| 2026-05-04 19:04 | 51.39400 | 6.40108 | 12961 ft | 306 kts | 280° |
| 2026-05-04 19:04 | 51.39430 | 6.36707 | 13702 ft | 308 kts | 257° |
| 2026-05-04 19:04 | 51.38633 | 6.33531 | 14349 ft | 308 kts | 234° |
| 2026-05-04 19:05 | 51.37159 | 6.31134 | 15014 ft | 308 kts | 212° |
| 2026-05-04 19:05 | 51.35310 | 6.29394 | 15704 ft | 309 kts | 208° |
| 2026-05-04 19:05 | 51.33432 | 6.27690 | 16398 ft | 311 kts | 207° |
| 2026-05-04 19:05 | 51.31426 | 6.26286 | 16826 ft | 323 kts | 200° |
| 2026-05-04 19:06 | 51.29246 | 6.25003 | 16960 ft | 342 kts | 199° |
| 2026-05-04 19:06 | 51.26960 | 6.23673 | 17086 ft | 361 kts | 199° |
| 2026-05-04 19:06 | 51.24590 | 6.22296 | 17248 ft | 377 kts | 200° |
| 2026-05-04 19:06 | 51.22099 | 6.20847 | 17653 ft | 384 kts | 200° |
| 2026-05-04 19:07 | 51.19565 | 6.19377 | 18207 ft | 388 kts | 200° |
| 2026-05-04 19:07 | 51.17015 | 6.17894 | 18719 ft | 391 kts | 200° |
| 2026-05-04 19:07 | 51.14467 | 6.16405 | 19232 ft | 392 kts | 200° |
| 2026-05-04 19:07 | 51.11881 | 6.14895 | 19744 ft | 394 kts | 200° |
| 2026-05-04 19:08 | 51.09290 | 6.13387 | 20251 ft | 396 kts | 200° |
| 2026-05-04 19:08 | 51.06721 | 6.11888 | 20748 ft | 399 kts | 201° |
| 2026-05-04 19:08 | 51.04217 | 6.09962 | 21217 ft | 401 kts | 211° |
| 2026-05-04 19:08 | 51.01980 | 6.07302 | 21690 ft | 405 kts | 221° |
| 2026-05-04 19:09 | 51.00090 | 6.03969 | 22158 ft | 408 kts | 233° |
| 2026-05-04 19:09 | 50.98603 | 6.00092 | 22634 ft | 412 kts | 239° |
| 2026-05-04 19:09 | 50.97281 | 5.96068 | 23065 ft | 415 kts | 245° |
| 2026-05-04 19:09 | 50.96368 | 5.91714 | 23501 ft | 420 kts | 252° |
| 2026-05-04 19:10 | 50.95602 | 5.87229 | 23843 ft | 421 kts | 252° |
| 2026-05-04 19:10 | 50.94829 | 5.82741 | 23952 ft | 423 kts | 252° |
| 2026-05-04 19:10 | 50.94024 | 5.78137 | 23973 ft | 434 kts | 252° |
| 2026-05-04 19:10 | 50.93222 | 5.73611 | 23977 ft | 437 kts | 252° |
| 2026-05-04 19:11 | 50.92395 | 5.68979 | 23978 ft | 438 kts | 252° |
| 2026-05-04 19:11 | 50.91559 | 5.64330 | 23983 ft | 438 kts | 252° |
| 2026-05-04 19:11 | 50.90714 | 5.59659 | 23965 ft | 441 kts | 252° |
| 2026-05-04 19:11 | 50.89861 | 5.54947 | 23969 ft | 443 kts | 252° |
| 2026-05-04 19:12 | 50.89021 | 5.50309 | 23971 ft | 443 kts | 252° |
| 2026-05-04 19:12 | 50.87314 | 5.40909 | 23968 ft | 443 kts | 252° |
| 2026-05-04 19:12 | 50.86459 | 5.36211 | 23963 ft | 443 kts | 252° |
| 2026-05-04 19:13 | 50.85603 | 5.31531 | 23961 ft | 443 kts | 252° |
| 2026-05-04 19:13 | 50.84746 | 5.26847 | 23964 ft | 443 kts | 252° |
| 2026-05-04 19:13 | 50.83890 | 5.22168 | 23960 ft | 443 kts | 252° |
| 2026-05-04 19:13 | 50.83033 | 5.17486 | 23959 ft | 443 kts | 252° |
| 2026-05-04 19:14 | 50.82173 | 5.12794 | 23957 ft | 443 kts | 252° |
| 2026-05-04 19:14 | 50.81316 | 5.08158 | 23945 ft | 444 kts | 252° |
| 2026-05-04 19:14 | 50.80447 | 5.03470 | 23943 ft | 445 kts | 252° |
| 2026-05-04 19:14 | 50.79574 | 4.98775 | 23941 ft | 446 kts | 252° |
| 2026-05-04 19:15 | 50.78693 | 4.94044 | 23942 ft | 446 kts | 252° |
| 2026-05-04 19:15 | 50.77814 | 4.89335 | 23943 ft | 447 kts | 252° |
| 2026-05-04 19:15 | 50.76932 | 4.84619 | 23952 ft | 447 kts | 252° |
| 2026-05-04 19:15 | 50.76060 | 4.79965 | 23962 ft | 446 kts | 252° |
| 2026-05-04 19:16 | 50.75176 | 4.75263 | 23969 ft | 446 kts | 252° |
| 2026-05-04 19:16 | 50.74292 | 4.70574 | 23971 ft | 445 kts | 252° |
| 2026-05-04 19:16 | 50.73406 | 4.65894 | 23977 ft | 445 kts | 252° |
| 2026-05-04 19:16 | 50.72515 | 4.61201 | 23968 ft | 446 kts | 252° |
| 2026-05-04 19:17 | 50.71623 | 4.56499 | 23962 ft | 446 kts | 252° |
| 2026-05-04 19:17 | 50.70732 | 4.51820 | 23958 ft | 446 kts | 252° |
| 2026-05-04 19:17 | 50.69831 | 4.47107 | 23955 ft | 447 kts | 252° |
| 2026-05-04 19:17 | 50.68945 | 4.42474 | 23955 ft | 447 kts | 252° |
| 2026-05-04 19:18 | 50.68030 | 4.37721 | 23955 ft | 447 kts | 252° |
| 2026-05-04 19:18 | 50.67135 | 4.33091 | 23955 ft | 447 kts | 252° |
| 2026-05-04 19:18 | 50.66223 | 4.28384 | 23956 ft | 447 kts | 252° |
| 2026-05-04 19:18 | 50.65314 | 4.23691 | 23956 ft | 447 kts | 252° |
| 2026-05-04 19:19 | 50.64328 | 4.19034 | 23953 ft | 447 kts | 245° |
| 2026-05-04 19:19 | 50.62783 | 4.14806 | 23954 ft | 445 kts | 232° |
| 2026-05-04 19:19 | 50.60653 | 4.11288 | 23951 ft | 444 kts | 218° |
| 2026-05-04 19:19 | 50.58091 | 4.08727 | 23947 ft | 443 kts | 205° |
| 2026-05-04 19:20 | 50.55169 | 4.07173 | 23948 ft | 443 kts | 192° |
| 2026-05-04 19:20 | 50.52105 | 4.06748 | 23946 ft | 443 kts | 178° |
| 2026-05-04 19:20 | 50.49016 | 4.07062 | 23948 ft | 444 kts | 176° |
| 2026-05-04 19:20 | 50.45938 | 4.07400 | 23947 ft | 444 kts | 176° |
| 2026-05-04 19:21 | 50.42853 | 4.07738 | 23948 ft | 444 kts | 176° |
| 2026-05-04 19:21 | 50.39748 | 4.08076 | 23821 ft | 448 kts | 176° |
| 2026-05-04 19:21 | 50.36669 | 4.08408 | 23605 ft | 448 kts | 176° |
| 2026-05-04 19:21 | 50.33557 | 4.08728 | 23342 ft | 447 kts | 178° |
| 2026-05-04 19:22 | 50.30453 | 4.08868 | 23064 ft | 445 kts | 180° |
| 2026-05-04 19:22 | 50.27366 | 4.08819 | 22789 ft | 443 kts | 182° |
| 2026-05-04 19:22 | 50.24276 | 4.08659 | 22521 ft | 442 kts | 182° |
| 2026-05-04 19:22 | 50.21204 | 4.08469 | 22248 ft | 440 kts | 182° |
| 2026-05-04 19:23 | 50.18145 | 4.08295 | 21981 ft | 438 kts | 182° |
| 2026-05-04 19:23 | 50.15127 | 4.08079 | 21717 ft | 437 kts | 187° |
| 2026-05-04 19:23 | 50.12171 | 4.07024 | 21454 ft | 435 kts | 196° |
| 2026-05-04 19:23 | 50.09258 | 4.05705 | 21196 ft | 433 kts | 197° |
| 2026-05-04 19:24 | 50.06372 | 4.04380 | 20936 ft | 432 kts | 197° |
| 2026-05-04 19:24 | 50.03486 | 4.03048 | 20682 ft | 430 kts | 197° |
| 2026-05-04 19:24 | 50.00654 | 4.01745 | 20432 ft | 429 kts | 197° |
| 2026-05-04 19:24 | 49.97788 | 4.00432 | 20185 ft | 428 kts | 197° |
| 2026-05-04 19:25 | 49.94932 | 3.99129 | 19933 ft | 427 kts | 196° |
| 2026-05-04 19:25 | 49.92128 | 3.97639 | 19692 ft | 425 kts | 205° |
| 2026-05-04 19:25 | 49.89450 | 3.95670 | 19440 ft | 424 kts | 206° |
| 2026-05-04 19:25 | 49.86786 | 3.93705 | 19196 ft | 422 kts | 206° |
| 2026-05-04 19:26 | 49.84165 | 3.91769 | 18960 ft | 421 kts | 206° |
| 2026-05-04 19:26 | 49.81519 | 3.89817 | 18722 ft | 420 kts | 206° |
| 2026-05-04 19:26 | 49.78891 | 3.87883 | 18473 ft | 419 kts | 206° |
| 2026-05-04 19:26 | 49.76250 | 3.85951 | 18233 ft | 417 kts | 205° |
| 2026-05-04 19:27 | 49.73618 | 3.84033 | 17982 ft | 416 kts | 205° |
| 2026-05-04 19:27 | 49.70996 | 3.82122 | 17707 ft | 415 kts | 205° |
| 2026-05-04 19:27 | 49.68385 | 3.80216 | 17430 ft | 414 kts | 205° |
| 2026-05-04 19:27 | 49.65821 | 3.78343 | 17176 ft | 410 kts | 205° |
| 2026-05-04 19:28 | 49.63249 | 3.76464 | 16905 ft | 408 kts | 205° |
| 2026-05-04 19:28 | 49.60677 | 3.74587 | 16644 ft | 407 kts | 205° |
| 2026-05-04 19:28 | 49.58111 | 3.72715 | 16385 ft | 406 kts | 205° |
| 2026-05-04 19:28 | 49.55552 | 3.70852 | 16134 ft | 405 kts | 205° |
| 2026-05-04 19:29 | 49.53033 | 3.69022 | 15882 ft | 404 kts | 205° |
| 2026-05-04 19:29 | 49.50483 | 3.67172 | 15626 ft | 403 kts | 206° |
| 2026-05-04 19:29 | 49.48104 | 3.64907 | 15376 ft | 402 kts | 218° |
| 2026-05-04 19:29 | 49.46096 | 3.61928 | 15127 ft | 400 kts | 230° |
| 2026-05-04 19:30 | 49.44570 | 3.58422 | 14935 ft | 398 kts | 242° |
| 2026-05-04 19:30 | 49.43543 | 3.54457 | 14947 ft | 401 kts | 254° |
| 2026-05-04 19:30 | 49.42851 | 3.50359 | 14946 ft | 390 kts | 256° |
| 2026-05-04 19:30 | 49.42117 | 3.46268 | 14948 ft | 400 kts | 250° |
| 2026-05-04 19:31 | 49.41121 | 3.42253 | 14953 ft | 403 kts | 248° |
| 2026-05-04 19:31 | 49.40091 | 3.38253 | 14952 ft | 403 kts | 248° |
| 2026-05-04 19:31 | 49.39050 | 3.34315 | 14952 ft | 403 kts | 248° |
| 2026-05-04 19:31 | 49.37980 | 3.30336 | 14952 ft | 403 kts | 247° |
| 2026-05-04 19:32 | 49.36903 | 3.26361 | 14952 ft | 403 kts | 247° |
| 2026-05-04 19:32 | 49.35825 | 3.22395 | 14951 ft | 403 kts | 247° |
| 2026-05-04 19:32 | 49.34749 | 3.18423 | 14949 ft | 403 kts | 247° |
| 2026-05-04 19:32 | 49.33675 | 3.14437 | 14947 ft | 403 kts | 247° |
| 2026-05-04 19:33 | 49.32614 | 3.10491 | 14791 ft | 395 kts | 247° |
| 2026-05-04 19:33 | 49.31583 | 3.06662 | 14546 ft | 383 kts | 247° |
| 2026-05-04 19:33 | 49.30577 | 3.02939 | 14303 ft | 372 kts | 247° |
| 2026-05-04 19:33 | 49.29598 | 2.99320 | 14066 ft | 362 kts | 247° |
| 2026-05-04 19:34 | 49.28641 | 2.95799 | 13830 ft | 353 kts | 247° |
| 2026-05-04 19:34 | 49.27717 | 2.92403 | 13576 ft | 345 kts | 247° |
| 2026-05-04 19:34 | 49.26801 | 2.89040 | 13312 ft | 338 kts | 247° |
| 2026-05-04 19:34 | 49.25907 | 2.85759 | 13043 ft | 331 kts | 247° |
| 2026-05-04 19:35 | 49.25027 | 2.82544 | 12872 ft | 321 kts | 246° |
| 2026-05-04 19:35 | 49.24179 | 2.79446 | 12589 ft | 308 kts | 246° |
| 2026-05-04 19:35 | 49.23358 | 2.76447 | 12022 ft | 303 kts | 247° |
| 2026-05-04 19:35 | 49.22548 | 2.73483 | 11419 ft | 300 kts | 246° |
| 2026-05-04 19:36 | 49.21751 | 2.70579 | 11023 ft | 299 kts | 246° |
| 2026-05-04 19:36 | 49.20944 | 2.67653 | 10940 ft | 299 kts | 246° |
| 2026-05-04 19:36 | 49.20130 | 2.64696 | 10941 ft | 300 kts | 246° |
| 2026-05-04 19:36 | 49.19315 | 2.61741 | 10948 ft | 301 kts | 246° |
| 2026-05-04 19:37 | 49.18541 | 2.58772 | 10944 ft | 301 kts | 252° |
| 2026-05-04 19:37 | 49.18097 | 2.55672 | 10953 ft | 301 kts | 263° |
| 2026-05-04 19:37 | 49.17985 | 2.52465 | 10682 ft | 305 kts | 268° |
| 2026-05-04 19:37 | 49.17917 | 2.49271 | 10353 ft | 299 kts | 268° |
| 2026-05-04 19:38 | 49.17849 | 2.46168 | 10201 ft | 283 kts | 268° |
| 2026-05-04 19:38 | 49.17782 | 2.43214 | 9837 ft | 274 kts | 268° |
| 2026-05-04 19:38 | 49.17715 | 2.40311 | 9292 ft | 270 kts | 268° |
| 2026-05-04 19:38 | 49.17649 | 2.37449 | 8670 ft | 268 kts | 268° |
| 2026-05-04 19:39 | 49.17589 | 2.34617 | 8198 ft | 264 kts | 268° |
| 2026-05-04 19:39 | 49.17548 | 2.32763 | 7819 ft | 264 kts | 268° |
| 2026-05-04 19:39 | 49.17482 | 2.29949 | 7456 ft | 264 kts | 268° |
| 2026-05-04 19:39 | 49.17396 | 2.26241 | 7009 ft | 262 kts | 268° |
| 2026-05-04 19:40 | 49.17353 | 2.24401 | 6771 ft | 261 kts | 268° |
| 2026-05-04 19:40 | 49.17271 | 2.21638 | 6432 ft | 259 kts | 263° |
| 2026-05-04 19:40 | 49.16651 | 2.19081 | 6086 ft | 257 kts | 233° |
| 2026-05-04 19:40 | 49.15456 | 2.17070 | 5678 ft | 256 kts | 223° |
| 2026-05-04 19:41 | 49.14176 | 2.15214 | 5294 ft | 256 kts | 222° |
| 2026-05-04 19:41 | 49.12859 | 2.13342 | 4924 ft | 255 kts | 222° |
| 2026-05-04 19:41 | 49.11569 | 2.11520 | 4562 ft | 255 kts | 222° |
| 2026-05-04 19:41 | 49.10263 | 2.09687 | 4197 ft | 253 kts | 222° |
| 2026-05-04 19:42 | 49.08965 | 2.07875 | 4009 ft | 251 kts | 222° |
| 2026-05-04 19:42 | 49.07670 | 2.06088 | 4005 ft | 246 kts | 220° |
| 2026-05-04 19:42 | 49.06315 | 2.04639 | 4009 ft | 232 kts | 201° |
| 2026-05-04 19:42 | 49.04776 | 2.04316 | 4009 ft | 226 kts | 167° |
| 2026-05-04 19:43 | 49.03393 | 2.05325 | 4010 ft | 221 kts | 133° |
| 2026-05-04 19:43 | 49.02540 | 2.07231 | 4009 ft | 219 kts | 115° |
| 2026-05-04 19:43 | 49.01893 | 2.09305 | 4005 ft | 210 kts | 112° |
| 2026-05-04 19:43 | 49.01310 | 2.11272 | 4001 ft | 196 kts | 112° |
| 2026-05-04 19:44 | 49.00762 | 2.13121 | 4017 ft | 188 kts | 112° |
| 2026-05-04 19:44 | 49.00403 | 2.14990 | 4026 ft | 185 kts | 90° |
| 2026-05-04 19:44 | 49.00489 | 2.16937 | 4014 ft | 184 kts | 83° |
| 2026-05-04 19:44 | 49.00602 | 2.18884 | 4011 ft | 184 kts | 84° |
| 2026-05-04 19:45 | 49.00713 | 2.20828 | 4005 ft | 185 kts | 84° |
| 2026-05-04 19:45 | 49.00825 | 2.22791 | 4030 ft | 186 kts | 84° |
| 2026-05-04 19:45 | 49.00937 | 2.24770 | 3930 ft | 187 kts | 84° |
| 2026-05-04 19:45 | 49.01049 | 2.26743 | 3724 ft | 186 kts | 84° |
| 2026-05-04 19:46 | 49.01159 | 2.28702 | 3488 ft | 185 kts | 84° |
| 2026-05-04 19:46 | 49.01269 | 2.30658 | 3248 ft | 185 kts | 84° |
| 2026-05-04 19:46 | 49.01378 | 2.32608 | 3002 ft | 184 kts | 84° |
| 2026-05-04 19:46 | 49.01485 | 2.34524 | 2755 ft | 183 kts | 84° |
| 2026-05-04 19:47 | 49.01593 | 2.36463 | 2512 ft | 182 kts | 84° |
| 2026-05-04 19:47 | 49.01697 | 2.38349 | 2270 ft | 175 kts | 84° |
| 2026-05-04 19:47 | 49.01795 | 2.40130 | 2044 ft | 160 kts | 84° |
| 2026-05-04 19:47 | 49.01884 | 2.41745 | 1833 ft | 147 kts | 84° |
| 2026-05-04 19:48 | 49.01968 | 2.43269 | 1646 ft | 142 kts | 84° |
| 2026-05-04 19:48 | 49.02048 | 2.44754 | 1444 ft | 140 kts | 84° |
| 2026-05-04 19:48 | 49.02125 | 2.46210 | 1249 ft | 139 kts | 84° |
| 2026-05-04 19:48 | 49.02203 | 2.47681 | 1027 ft | 139 kts | 84° |
| 2026-05-04 19:49 | 49.02288 | 2.49148 | 833 ft | 139 kts | 84° |
| 2026-05-04 19:49 | 49.02369 | 2.50620 | 646 ft | 139 kts | 84° |
| 2026-05-04 19:49 | 49.02445 | 2.52084 | 450 ft | 139 kts | 84° |
| 2026-05-04 19:49 | 49.02526 | 2.53514 | 356 ft | 121 kts | 84° |
| 2026-05-04 19:50 | 49.02572 | 2.54344 | 353 ft | 39 kts | 89° |
| 2026-05-04 19:50 | 49.02537 | 2.54608 | 357 ft | 22 kts | 103° |
| 2026-05-04 19:50 | 49.02499 | 2.54829 | 357 ft | 21 kts | 105° |
| 2026-05-04 19:50 | 49.02460 | 2.55042 | 361 ft | 20 kts | 105° |
| 2026-05-04 19:51 | 49.02451 | 2.55097 | 359 ft | 0 kts | 103° |
| 2026-05-04 19:51 | 49.02448 | 2.55125 | 357 ft | 8 kts | 99° |
| 2026-05-04 19:52 | 49.02450 | 2.55250 | 362 ft | 13 kts | 85° |
| 2026-05-04 19:52 | 49.02458 | 2.55388 | 354 ft | 15 kts | 85° |
| 2026-05-04 19:52 | 49.02457 | 2.55544 | 358 ft | 16 kts | 107° |
| 2026-05-04 19:52 | 49.02349 | 2.55621 | 354 ft | 19 kts | 176° |
| 2026-05-04 19:53 | 49.02222 | 2.55637 | 359 ft | 18 kts | 176° |
| 2026-05-04 19:53 | 49.02157 | 2.55645 | 357 ft | 0 kts | 175° |
| 2026-05-04 19:54 | 49.02145 | 2.55647 | 354 ft | 9 kts | 175° |
| 2026-05-04 19:55 | 49.02064 | 2.55657 | 357 ft | 13 kts | 175° |
| 2026-05-04 19:55 | 49.01967 | 2.55669 | 354 ft | 15 kts | 175° |
| 2026-05-04 19:55 | 49.01895 | 2.55622 | 358 ft | 15 kts | 240° |
| 2026-05-04 19:55 | 49.01880 | 2.55440 | 354 ft | 18 kts | 265° |
| 2026-05-04 19:56 | 49.01870 | 2.55257 | 354 ft | 17 kts | 265° |
| 2026-05-04 19:56 | 49.01859 | 2.55044 | 360 ft | 24 kts | 265° |
| 2026-05-04 19:56 | 49.01834 | 2.54874 | 362 ft | 10 kts | 220° |
| 2026-05-04 19:56 | 49.01738 | 2.54867 | 354 ft | 16 kts | 175° |
| 2026-05-04 19:57 | 49.01632 | 2.54881 | 354 ft | 15 kts | 175° |
| 2026-05-04 19:57 | 49.01509 | 2.54896 | 357 ft | 21 kts | 176° |
| 2026-05-04 19:57 | 49.01349 | 2.54937 | 354 ft | 25 kts | 165° |
| 2026-05-04 19:57 | 49.01235 | 2.54915 | 356 ft | 19 kts | 244° |
| 2026-05-04 19:58 | 49.01218 | 2.54693 | 354 ft | 24 kts | 266° |
| 2026-05-04 19:58 | 49.01205 | 2.54440 | 353 ft | 22 kts | 265° |
| 2026-05-04 19:58 | 49.01227 | 2.54355 | 356 ft | 13 kts | 318° |
| 2026-05-04 19:58 | 49.01329 | 2.54327 | 356 ft | 16 kts | 16° |
| 2026-05-04 19:59 | 49.01426 | 2.54371 | 358 ft | 10 kts | 6° |
| 2026-05-04 19:59 | 49.01443 | 2.54381 | 363 ft | 0 kts | 41° |
| 2026-05-04 19:59 | 49.01449 | 2.54404 | 359 ft | 4 kts | 77° |
| 2026-05-04 19:59 | 49.01451 | 2.54427 | 359 ft | 1 kts | 82° |
| 2026-05-04 20:00 | 49.01452 | 2.54463 | 354 ft | 3 kts | 87° |
| 2026-05-04 20:00 | 49.01452 | 2.54477 | 354 ft | 0 kts | 89° |
| 2026-05-04 20:00 | 49.01452 | 2.54479 | 354 ft | 0 kts | 89° |